• Join FlightAware (Why Join?)
  • Login
  • US Flag 
05:37AM EDT


 

Airport Tracker/Info


-or-


 

Live Flight TrackerFlight Track Log ✈ AXM6057 ✈ 27-Oct-2013 ✈ WBGB / BTU - WBGG / KCH

Flight Track Log - Related Links

Times and Time Zones

All times are in EDT time to prevent confusion due to time zone crossing. See the AXM6057 flight status page for this flight to view local times or setup timezone preferences in your user account.

Time Position Orientation Groundspeed Altitude Reporting Facility
EDT Latitude Longitude Course Direction KTS MPH feet Rate Location/Type
11:16PM 2.1700 111.5190 237° Southwest 417 480 22,400  Level FlightAware
11:16PM 2.1640 111.5110 233° Southwest 418 481 22,200 -2,580 Descending FlightAware
11:17PM 2.1050 111.4200 237° Southwest 420 483 19,800 -2,400 Descending FlightAware
11:18PM 2.0530 111.3400 237° Southwest 409 471 18,100 -2,100 Descending FlightAware
11:18PM 2.0120 111.2760 237° Southwest 398 458 16,700 -1,860 Descending FlightAware
11:19PM 1.9480 111.1780 237° Southwest 382 440 14,900 -1,260 Descending FlightAware
11:20PM 1.9170 111.1290 238° Southwest 381 438 14,600 -1,500 Descending FlightAware
11:21PM 1.8580 111.0390 237° Southwest 371 427 12,500 -2,640 Descending FlightAware
11:22PM 1.8160 110.9740 237° Southwest 363 418 10,100 -2,880 Descending FlightAware
11:22PM 1.7890 110.9330 237° Southwest 356 410 9,100 -1,980 Descending FlightAware
11:23PM 1.7610 110.8890 238° Southwest 350 403 8,100 -2,040 Descending FlightAware
11:23PM 1.7400 110.8560 238° Southwest 345 397 7,200 -1,680 Descending FlightAware
11:24PM 1.7250 110.8290 241° Southwest 322 371 6,900 -480 Descending FlightAware
11:24PM 1.7110 110.8050 240° Southwest 286 329 6,900 -180 Level FlightAware
11:24PM 1.6990 110.7850 239° Southwest 270 311 6,800 -600 Descending FlightAware
11:25PM 1.6850 110.7610 240° Southwest 261 300 6,500 -1,140 Descending FlightAware
11:25PM 1.6700 110.7340 241° Southwest 261 300 5,900 -1,320 Descending FlightAware
11:25PM 1.6550 110.7090 239° Southwest 258 297 5,400 -1,320 Descending FlightAware
11:26PM 1.6480 110.6960 242° Southwest 259 298 5,100 -1,380 Descending FlightAware
11:26PM 1.6330 110.6710 239° Southwest 258 297 4,600 -1,320 Descending FlightAware
11:27PM 1.6170 110.6430 240° Southwest 256 295 4,000 -1,320 Descending FlightAware
11:27PM 1.6000 110.6140 240° Southwest 253 291 3,400 -1,320 Descending FlightAware
11:27PM 1.5860 110.5900 240° Southwest 251 289 2,900 -1,140 Descending FlightAware
11:28PM 1.5700 110.5590 243° Southwest 246 283 2,400 -840 Descending FlightAware
11:28PM 1.5620 110.5420 245° Southwest 250 288 2,300 -180 Descending FlightAware
11:29PM 1.5510 110.5120 250° West 239 275 2,300 60 Level FlightAware
11:29PM 1.5400 110.4850 248° West 208 239 2,400 -360 Climbing FlightAware
11:30PM 1.5310 110.4620 249° West 196 226 2,000 -1,020 Descending FlightAware
11:30PM 1.5240 110.4450 248° West 177 204 1,600 -960 Descending FlightAware
11:30PM 1.5170 110.4280 248° West 158 182 1,300 -780 Descending FlightAware
11:31PM 1.5110 110.4120 249° West 143 165 1,000 -720 Descending FlightAware
11:31PM 1.5060 110.4000 247° West 143 165 800 -720 Descending FlightAware
11:31PM 1.5020 110.3900 248° West 143 165 600 -840 Descending FlightAware
11:32PM 1.4970 110.3770 249° West 141 162 300 -900 Descending FlightAware